createdAt,value
2023-02-06T00:01:42.660Z,62.80
2023-02-06T00:04:11.170Z,60.67
2023-02-06T00:06:41.485Z,61.17
2023-02-06T00:09:10.504Z,58.90
2023-02-06T00:11:39.325Z,48.67
2023-02-06T00:14:08.002Z,47.73
2023-02-06T00:16:36.946Z,45.17
2023-02-06T00:19:05.729Z,53.70
2023-02-06T00:21:34.675Z,55.77
2023-02-06T00:24:04.954Z,53.70
2023-02-06T00:26:33.818Z,47.40
2023-02-06T00:29:02.338Z,45.13
2023-02-06T00:31:31.079Z,47.93
2023-02-06T00:34:00.021Z,49.27
2023-02-06T00:36:28.699Z,45.33
2023-02-06T00:38:57.055Z,44.87
2023-02-06T00:41:27.239Z,42.67
2023-02-06T00:43:55.594Z,45.93
2023-02-06T00:46:25.714Z,43.10
2023-02-06T00:48:54.107Z,38.60
2023-02-06T00:51:23.023Z,36.60
2023-02-06T00:53:51.522Z,38.23
2023-02-06T00:56:21.297Z,36.63
2023-02-06T00:58:51.077Z,37.27
2023-02-06T01:01:20.006Z,36.17
2023-02-06T01:03:48.501Z,36.83
2023-02-06T01:06:17.194Z,38.67
2023-02-06T01:08:45.923Z,38.43
2023-02-06T01:11:16.595Z,37.47
2023-02-06T01:13:45.336Z,37.43
2023-02-06T01:16:16.966Z,34.67
2023-02-06T01:18:45.504Z,31.10
2023-02-06T01:21:17.406Z,34.40
2023-02-06T01:23:46.228Z,32.70
2023-02-06T01:26:17.345Z,31.10
2023-02-06T01:28:47.577Z,34.27
2023-02-06T01:31:19.463Z,35.47
2023-02-06T01:33:49.414Z,36.97
2023-02-06T01:36:18.824Z,35.77
2023-02-06T01:38:48.103Z,38.97
2023-02-06T01:41:18.890Z,39.37
2023-02-06T01:44:07.473Z,40.93
2023-02-06T01:46:37.684Z,37.70
2023-02-06T01:49:07.462Z,41.23
2023-02-06T01:51:36.397Z,37.47
2023-02-06T01:54:07.730Z,37.93
2023-02-06T01:56:42.633Z,33.83
2023-02-06T01:59:11.170Z,30.33
2023-02-06T02:01:42.661Z,31.27
2023-02-06T02:04:17.090Z,35.63
2023-02-06T02:06:47.816Z,36.23
2023-02-06T02:09:16.803Z,37.03
2023-02-06T02:11:45.737Z,41.30
2023-02-06T02:14:17.290Z,42.50
2023-02-06T02:16:55.802Z,39.40
2023-02-06T02:19:49.163Z,36.63
2023-02-06T02:22:46.855Z,37.03
2023-02-06T02:25:49.242Z,37.80
2023-02-06T02:28:51.344Z,37.67
2023-02-06T02:32:06.006Z,37.10
2023-02-06T02:35:16.991Z,36.63
2023-02-06T02:38:01.104Z,38.03
2023-02-06T02:40:39.507Z,37.50
2023-02-06T02:43:17.706Z,35.33
2023-02-06T02:45:51.745Z,34.83
2023-02-06T02:48:25.394Z,34.30
2023-02-06T02:50:56.180Z,36.53
2023-02-06T02:53:26.545Z,37.90
2023-02-06T02:55:55.948Z,39.73
2023-02-06T02:58:31.254Z,40.33
2023-02-06T03:01:04.268Z,40.63
2023-02-06T03:03:39.744Z,38.63
2023-02-06T03:06:26.475Z,34.13
2023-02-06T03:09:03.538Z,34.23
2023-02-06T03:11:33.539Z,33.87
2023-02-06T03:14:07.019Z,35.13
2023-02-06T03:16:39.940Z,31.83
2023-02-06T03:19:12.844Z,32.30
2023-02-06T03:21:43.665Z,31.43
2023-02-06T03:24:19.279Z,34.80
2023-02-06T03:26:50.412Z,34.60
2023-02-06T03:29:20.036Z,37.83
2023-02-06T03:31:52.909Z,33.53
2023-02-06T03:34:24.443Z,36.17
2023-02-06T03:36:54.131Z,36.77
2023-02-06T03:39:24.671Z,37.83
2023-02-06T03:41:57.374Z,36.17
2023-02-06T03:44:29.975Z,35.27
2023-02-06T03:47:01.016Z,30.87
2023-02-06T03:49:32.874Z,32.00
2023-02-06T03:52:05.958Z,32.17
2023-02-06T03:54:40.414Z,32.40
2023-02-06T03:57:13.530Z,33.70
2023-02-06T03:59:41.982Z,32.10
2023-02-06T04:02:10.771Z,33.43
2023-02-06T04:04:41.576Z,30.17
2023-02-06T04:07:14.566Z,31.37
2023-02-06T04:09:44.373Z,29.17
2023-02-06T04:12:13.506Z,30.00
2023-02-06T04:14:41.908Z,31.40
2023-02-06T04:17:12.356Z,29.13
2023-02-06T04:19:42.088Z,30.80
2023-02-06T04:22:14.057Z,30.73
2023-02-06T04:24:44.487Z,29.20
2023-02-06T04:27:14.745Z,29.87
2023-02-06T04:29:43.227Z,28.83
2023-02-06T04:32:12.472Z,30.07
2023-02-06T04:34:40.934Z,29.13
2023-02-06T04:37:12.282Z,30.17
2023-02-06T04:39:41.168Z,28.70
2023-02-06T04:42:11.217Z,29.90
2023-02-06T04:44:39.589Z,29.47
2023-02-06T04:47:08.672Z,29.27
2023-02-06T04:49:37.040Z,31.17
2023-02-06T04:52:06.027Z,28.93
2023-02-06T04:54:34.417Z,30.00
2023-02-06T04:57:03.116Z,34.43
2023-02-06T04:59:32.990Z,29.30
2023-02-06T05:02:01.774Z,27.83
2023-02-06T05:04:30.307Z,30.70
2023-02-06T05:06:58.911Z,28.13
2023-02-06T05:09:27.332Z,29.83
2023-02-06T05:11:56.039Z,29.80
2023-02-06T05:14:24.869Z,29.90
2023-02-06T05:16:54.940Z,26.67
2023-02-06T05:19:23.404Z,26.83
2023-02-06T05:21:52.120Z,29.00
2023-02-06T05:24:20.444Z,27.10
2023-02-06T05:26:49.196Z,26.73
2023-02-06T05:29:17.548Z,28.23
2023-02-06T05:31:46.245Z,25.90
2023-02-06T05:34:15.978Z,27.07
2023-02-06T05:36:44.873Z,25.90
2023-02-06T05:39:13.247Z,26.27
2023-02-06T05:41:41.917Z,23.93
2023-02-06T05:44:10.996Z,26.80
2023-02-06T05:46:39.765Z,27.23
2023-02-06T05:49:08.261Z,26.37
2023-02-06T05:51:38.243Z,26.33
2023-02-06T05:54:06.778Z,27.30
2023-02-06T05:56:35.410Z,25.47
2023-02-06T05:59:03.801Z,27.40
2023-02-06T06:01:33.047Z,26.70
2023-02-06T06:04:01.638Z,28.73
2023-02-06T06:06:30.276Z,29.50
2023-02-06T06:09:01.422Z,29.07
2023-02-06T06:11:30.703Z,30.20
2023-02-06T06:13:59.257Z,28.17
2023-02-06T06:16:28.067Z,30.73
2023-02-06T06:18:56.818Z,25.60
2023-02-06T06:21:25.678Z,24.73
2023-02-06T06:23:54.156Z,26.23
2023-02-06T06:26:24.455Z,24.47
2023-02-06T06:28:52.866Z,25.57
2023-02-06T06:31:21.713Z,28.67
2023-02-06T06:33:50.212Z,26.37
2023-02-06T06:36:19.104Z,28.93
2023-02-06T06:38:47.614Z,27.90
2023-02-06T06:41:16.964Z,28.20
2023-02-06T06:43:46.666Z,29.83
2023-02-06T06:46:15.721Z,30.90
2023-02-06T06:48:44.049Z,28.60
2023-02-06T06:51:12.700Z,27.37
2023-02-06T06:53:41.024Z,28.87
2023-02-06T06:56:13.365Z,30.10
2023-02-06T06:58:42.251Z,30.13
2023-02-06T07:01:12.301Z,30.57
2023-02-06T07:03:44.096Z,28.37
2023-02-06T07:06:13.469Z,27.60
2023-02-06T07:08:42.205Z,27.50
2023-02-06T07:11:11.643Z,25.87
2023-02-06T07:13:40.499Z,26.33
2023-02-06T07:16:11.407Z,26.63
2023-02-06T07:18:41.909Z,26.10
2023-02-06T07:21:11.499Z,27.77
2023-02-06T07:23:40.108Z,24.90
2023-02-06T07:26:09.191Z,26.43
2023-02-06T07:28:38.028Z,26.80
2023-02-06T07:31:09.068Z,27.30
2023-02-06T07:33:38.900Z,28.33
2023-02-06T07:36:12.009Z,29.40
2023-02-06T07:38:40.463Z,30.60
2023-02-06T07:41:11.194Z,30.77
2023-02-06T07:43:41.141Z,29.30
2023-02-06T07:46:09.876Z,28.07
2023-02-06T07:48:39.615Z,27.13
2023-02-06T07:51:10.018Z,28.90
2023-02-06T07:53:39.185Z,28.30
2023-02-06T07:56:13.020Z,30.83
2023-02-06T07:58:41.471Z,30.03
2023-02-06T08:01:10.765Z,36.10
2023-02-06T08:03:40.501Z,39.07
2023-02-06T08:06:10.274Z,33.17
2023-02-06T08:08:39.068Z,34.60
2023-02-06T08:11:08.560Z,36.57
2023-02-06T08:13:37.755Z,37.37
2023-02-06T08:16:07.779Z,37.13
2023-02-06T08:18:36.636Z,35.57
2023-02-06T08:21:08.808Z,33.43
2023-02-06T08:23:37.239Z,31.33
2023-02-06T08:26:07.797Z,31.17
2023-02-06T08:28:37.037Z,32.20
2023-02-06T08:31:11.327Z,32.30
2023-02-06T08:33:40.499Z,31.17
2023-02-06T08:36:11.901Z,30.23
2023-02-06T08:38:40.873Z,29.90
2023-02-06T08:41:18.527Z,31.13
2023-02-06T08:43:47.460Z,30.77
2023-02-06T08:46:17.485Z,28.77
2023-02-06T08:48:46.617Z,26.20
2023-02-06T08:51:16.728Z,27.80
2023-02-06T08:53:45.128Z,26.97
2023-02-06T08:56:14.165Z,26.50
2023-02-06T08:58:42.595Z,26.47
2023-02-06T09:01:14.609Z,24.63
2023-02-06T09:03:43.185Z,23.07
2023-02-06T09:06:13.405Z,24.60
2023-02-06T09:08:43.812Z,22.13
2023-02-06T09:11:15.598Z,22.83
2023-02-06T09:13:45.276Z,23.50
2023-02-06T09:16:14.611Z,22.87
2023-02-06T09:18:43.461Z,24.30
2023-02-06T09:21:14.254Z,23.93
2023-02-06T09:23:45.380Z,24.13
2023-02-06T09:26:15.857Z,24.77
2023-02-06T09:28:44.352Z,26.30
2023-02-06T09:31:13.373Z,25.63
2023-02-06T09:33:41.825Z,25.37
2023-02-06T09:36:12.878Z,24.70
2023-02-06T09:38:51.096Z,23.43
2023-02-06T09:41:24.290Z,26.20
2023-02-06T09:43:55.572Z,24.40
2023-02-06T09:46:29.105Z,26.47
2023-02-06T09:48:59.929Z,26.43
2023-02-06T09:51:40.099Z,27.37
2023-02-06T09:54:19.635Z,26.13
2023-02-06T09:56:54.064Z,24.20
2023-02-06T09:59:29.848Z,23.43
2023-02-06T10:02:13.775Z,25.73
2023-02-06T10:04:50.890Z,25.60
2023-02-06T10:07:27.342Z,23.27
2023-02-06T10:10:02.597Z,22.67
2023-02-06T10:12:37.185Z,23.70
2023-02-06T10:15:12.367Z,22.10
2023-02-06T10:17:50.140Z,20.73
2023-02-06T10:20:23.553Z,21.73
2023-02-06T10:22:58.277Z,20.80
2023-02-06T10:25:32.152Z,20.20
2023-02-06T10:28:03.589Z,22.47
2023-02-06T10:30:44.369Z,22.83
2023-02-06T10:33:25.673Z,20.60
2023-02-06T10:36:04.329Z,19.83
2023-02-06T10:38:59.115Z,18.87
2023-02-06T10:41:38.611Z,21.10
2023-02-06T10:44:19.423Z,18.60
2023-02-06T10:46:51.014Z,20.83
2023-02-06T10:49:30.410Z,19.13
2023-02-06T10:52:01.498Z,18.73
2023-02-06T10:54:34.660Z,19.30
2023-02-06T10:57:12.568Z,18.03
2023-02-06T10:59:45.998Z,16.30
2023-02-06T11:02:21.300Z,17.37
2023-02-06T11:04:56.566Z,15.27
2023-02-06T11:07:29.172Z,14.70
2023-02-06T11:09:58.228Z,15.17
2023-02-06T11:12:33.397Z,13.47
2023-02-06T11:15:08.516Z,15.13
2023-02-06T11:17:37.435Z,18.37
2023-02-06T11:20:20.214Z,13.77
2023-02-06T11:22:53.100Z,17.63
2023-02-06T11:25:33.634Z,12.87
2023-02-06T11:28:03.470Z,14.53
2023-02-06T11:30:35.716Z,13.00
2023-02-06T11:33:08.197Z,13.30
2023-02-06T11:35:41.440Z,13.07
2023-02-06T11:38:16.640Z,13.80
2023-02-06T11:40:54.479Z,14.47
2023-02-06T11:43:26.202Z,14.67
2023-02-06T11:46:09.635Z,14.17
2023-02-06T11:48:40.623Z,13.77
2023-02-06T11:51:11.783Z,9.33
2023-02-06T11:53:40.985Z,14.03
2023-02-06T11:56:18.740Z,13.07
2023-02-06T11:59:01.620Z,13.97
2023-02-06T12:01:38.235Z,15.23
2023-02-06T12:04:12.064Z,14.53
2023-02-06T12:06:41.937Z,14.70
2023-02-06T12:09:13.131Z,15.93
2023-02-06T12:11:50.626Z,14.03
2023-02-06T12:14:25.850Z,15.27
2023-02-06T12:16:55.296Z,15.53
2023-02-06T12:19:31.668Z,14.20
2023-02-06T12:22:03.880Z,13.93
2023-02-06T12:24:35.131Z,15.03
2023-02-06T12:27:20.726Z,14.60
2023-02-06T12:29:58.612Z,14.40
2023-02-06T12:32:33.004Z,14.47
2023-02-06T12:35:14.475Z,13.77
2023-02-06T12:37:49.008Z,14.83
2023-02-06T12:40:30.215Z,14.67
2023-02-06T12:43:04.057Z,14.93
2023-02-06T12:45:44.778Z,13.20
2023-02-06T12:48:19.408Z,13.87
2023-02-06T12:51:05.456Z,14.23
2023-02-06T12:53:39.835Z,14.23
2023-02-06T12:56:26.046Z,14.53
2023-02-06T12:59:03.468Z,13.67
2023-02-06T13:01:48.855Z,12.83
2023-02-06T13:04:20.691Z,13.77
2023-02-06T13:06:54.519Z,15.03
2023-02-06T13:09:29.980Z,13.23
2023-02-06T13:12:13.536Z,14.03
2023-02-06T13:14:47.779Z,14.37
2023-02-06T13:17:21.778Z,13.13
2023-02-06T13:20:05.536Z,13.03
2023-02-06T13:22:45.928Z,15.10
2023-02-06T13:25:54.283Z,13.20
2023-02-06T13:28:47.216Z,15.07
2023-02-06T13:31:27.867Z,14.60
2023-02-06T13:34:01.534Z,16.00
2023-02-06T13:36:51.964Z,17.30
2023-02-06T13:39:26.822Z,15.83
2023-02-06T13:41:55.608Z,15.57
2023-02-06T13:44:29.211Z,15.27
2023-02-06T13:47:35.328Z,14.40
2023-02-06T13:50:34.075Z,12.63
2023-02-06T13:53:36.759Z,13.37
2023-02-06T13:56:15.745Z,16.50
2023-02-06T13:58:49.404Z,14.37
2023-02-06T14:01:22.891Z,13.60
2023-02-06T14:03:53.800Z,15.77
2023-02-06T14:06:41.251Z,14.13
2023-02-06T14:09:30.416Z,14.63
2023-02-06T14:12:28.686Z,13.90
2023-02-06T14:15:14.700Z,13.67
2023-02-06T14:17:57.289Z,12.77
2023-02-06T14:20:35.341Z,14.37
2023-02-06T14:23:17.344Z,16.47
2023-02-06T14:26:00.420Z,14.70
2023-02-06T14:28:38.812Z,13.07
2023-02-06T14:31:20.088Z,12.47
2023-02-06T14:34:01.671Z,12.67
2023-02-06T14:36:59.824Z,14.53
2023-02-06T14:39:45.256Z,14.00
2023-02-06T14:42:18.200Z,14.53
2023-02-06T14:44:51.225Z,13.70
2023-02-06T14:47:23.012Z,15.23
2023-02-06T14:49:52.853Z,13.77
2023-02-06T14:52:24.875Z,13.93
2023-02-06T14:54:54.867Z,13.87
2023-02-06T14:57:26.179Z,14.30
2023-02-06T14:59:58.285Z,12.87
2023-02-06T15:02:30.295Z,13.30
2023-02-06T15:05:00.194Z,13.33
2023-02-06T15:07:31.674Z,14.03
2023-02-06T15:10:06.801Z,12.57
2023-02-06T15:12:36.254Z,14.20
2023-02-06T15:15:17.682Z,13.20
2023-02-06T15:17:57.393Z,15.50
2023-02-06T15:20:32.308Z,12.03
2023-02-06T15:23:18.150Z,12.10
2023-02-06T15:26:01.264Z,11.23
2023-02-06T15:28:32.650Z,13.03
2023-02-06T15:31:02.847Z,11.50
2023-02-06T15:33:33.304Z,10.90
2023-02-06T15:36:03.968Z,10.30
2023-02-06T15:38:34.715Z,16.17
2023-02-06T15:41:07.501Z,15.47
2023-02-06T15:43:36.993Z,16.70
2023-02-06T15:46:07.226Z,17.67
2023-02-06T15:48:39.266Z,17.70
2023-02-06T15:51:23.671Z,19.37
2023-02-06T15:53:54.272Z,12.33
2023-02-06T15:56:27.184Z,15.57
2023-02-06T15:58:59.298Z,16.17
2023-02-06T16:01:30.989Z,14.57
2023-02-06T16:04:04.742Z,17.83
2023-02-06T16:06:33.229Z,17.47
2023-02-06T16:09:06.321Z,18.37
2023-02-06T16:11:47.393Z,15.43
2023-02-06T16:14:22.258Z,15.60
2023-02-06T16:16:59.162Z,15.30
2023-02-06T16:19:37.174Z,17.13
2023-02-06T16:22:14.959Z,15.27
2023-02-06T16:24:43.663Z,16.27
2023-02-06T16:27:22.112Z,16.77
2023-02-06T16:29:53.298Z,18.07
2023-02-06T16:32:25.675Z,16.33
2023-02-06T16:34:55.488Z,15.87
2023-02-06T16:37:25.883Z,16.57
2023-02-06T16:39:55.748Z,18.63
2023-02-06T16:42:27.518Z,20.83
2023-02-06T16:45:01.076Z,17.27
2023-02-06T16:47:29.632Z,16.40
2023-02-06T16:49:58.295Z,19.40
2023-02-06T16:52:29.918Z,16.40
2023-02-06T16:54:59.741Z,16.30
2023-02-06T16:57:32.031Z,17.70
2023-02-06T17:00:00.874Z,16.23
2023-02-06T17:02:29.667Z,16.93
2023-02-06T17:04:58.477Z,20.13
2023-02-06T17:07:30.284Z,18.73
2023-02-06T17:10:00.100Z,18.37
2023-02-06T17:12:30.380Z,19.30
2023-02-06T17:14:59.369Z,18.10
2023-02-06T17:17:28.364Z,18.97
2023-02-06T17:19:57.348Z,23.70
2023-02-06T17:22:25.804Z,20.27
2023-02-06T17:24:54.508Z,22.70
2023-02-06T17:27:23.740Z,24.40
2023-02-06T17:29:53.863Z,21.63
2023-02-06T17:32:22.971Z,22.00
2023-02-06T17:34:54.203Z,22.90
2023-02-06T17:37:22.773Z,21.80
2023-02-06T17:39:52.642Z,21.57
2023-02-06T17:42:23.192Z,21.27
2023-02-06T17:44:53.293Z,20.87
2023-02-06T17:47:21.858Z,21.90
2023-02-06T17:49:50.780Z,23.00
2023-02-06T17:52:19.721Z,22.23
2023-02-06T17:54:48.473Z,29.67
2023-02-06T17:57:16.883Z,27.40
2023-02-06T17:59:45.588Z,36.50
2023-02-06T18:02:15.440Z,43.90
2023-02-06T18:04:44.200Z,49.60
2023-02-06T18:07:12.663Z,54.70
2023-02-06T18:09:42.403Z,55.90
2023-02-06T18:12:11.156Z,56.03
2023-02-06T18:14:40.657Z,46.13
2023-02-06T18:17:09.875Z,43.37
2023-02-06T18:19:42.737Z,51.77
2023-02-06T18:22:13.640Z,58.03
2023-02-06T18:24:42.972Z,60.30
2023-02-06T18:27:12.043Z,61.97
2023-02-06T18:29:49.359Z,61.53
2023-02-06T18:32:19.153Z,55.80
2023-02-06T18:34:49.535Z,58.27
2023-02-06T18:37:17.987Z,56.70
2023-02-06T18:39:46.947Z,50.10
2023-02-06T18:42:32.884Z,54.90
2023-02-06T18:45:04.037Z,58.20
2023-02-06T18:47:32.921Z,58.40
2023-02-06T18:50:03.158Z,58.93
2023-02-06T18:52:31.673Z,63.07
2023-02-06T18:55:00.463Z,59.37
2023-02-06T18:57:29.045Z,60.43
2023-02-06T18:59:58.833Z,63.57
2023-02-06T19:02:27.412Z,61.00
2023-02-06T19:04:58.604Z,58.47
2023-02-06T19:07:28.843Z,57.33
2023-02-06T19:09:58.962Z,59.57
2023-02-06T19:12:29.187Z,56.90
2023-02-06T19:14:59.582Z,60.00
2023-02-06T19:17:29.084Z,66.73
2023-02-06T19:19:58.402Z,62.03
2023-02-06T19:22:28.455Z,64.13
2023-02-06T19:24:57.380Z,62.37
2023-02-06T19:27:26.299Z,56.73
2023-02-06T19:29:55.161Z,51.50
2023-02-06T19:32:26.040Z,46.07
2023-02-06T19:34:54.761Z,45.40
2023-02-06T19:37:23.257Z,52.63
2023-02-06T19:39:53.393Z,58.40
2023-02-06T19:42:21.901Z,67.43
2023-02-06T19:44:53.950Z,69.47
2023-02-06T19:47:22.590Z,72.80
2023-02-06T19:49:52.841Z,75.63
2023-02-06T19:52:21.600Z,78.93
2023-02-06T19:54:50.288Z,75.73
2023-02-06T19:57:20.113Z,76.63
2023-02-06T19:59:48.961Z,81.63
2023-02-06T20:02:17.522Z,65.63
2023-02-06T20:04:46.461Z,72.17
2023-02-06T20:07:15.041Z,84.77
2023-02-06T20:09:43.837Z,88.97
2023-02-06T20:12:13.085Z,91.83
2023-02-06T20:14:43.928Z,94.47
2023-02-06T20:17:12.321Z,99.10
2023-02-06T20:19:41.093Z,102.20
2023-02-06T20:22:09.770Z,104.33
2023-02-06T20:24:38.752Z,107.57
2023-02-06T20:27:09.017Z,107.83
2023-02-06T20:29:39.534Z,105.40
2023-02-06T20:32:10.951Z,89.50
2023-02-06T20:34:39.831Z,83.50
2023-02-06T20:37:08.325Z,84.90
2023-02-06T20:39:37.025Z,82.10
2023-02-06T20:42:05.761Z,89.53
2023-02-06T20:44:34.690Z,87.53
2023-02-06T20:47:03.133Z,87.53
2023-02-06T20:49:33.573Z,84.37
2023-02-06T20:52:03.299Z,65.43
2023-02-06T20:54:32.160Z,45.57
2023-02-06T20:57:01.283Z,38.43
2023-02-06T20:59:30.550Z,33.90
2023-02-06T21:01:59.215Z,39.33
2023-02-06T21:04:28.054Z,44.57
2023-02-06T21:06:57.869Z,63.60
2023-02-06T21:21:09.334Z,75.10
2023-02-06T21:23:38.884Z,72.00
2023-02-06T21:26:08.624Z,72.33
2023-02-06T21:28:38.220Z,74.23
2023-02-06T21:31:08.789Z,71.87
2023-02-06T21:33:38.571Z,67.77
2023-02-06T21:36:09.318Z,63.43
2023-02-06T21:38:38.838Z,64.47
2023-02-06T21:41:08.258Z,59.03
2023-02-06T21:43:37.119Z,50.27
2023-02-06T21:46:06.279Z,120.50
2023-02-06T21:48:36.506Z,121.17
2023-02-06T21:51:10.624Z,139.53
2023-02-06T21:53:39.894Z,140.57
2023-02-06T21:56:10.376Z,145.53
2023-02-06T21:58:39.112Z,140.20
2023-02-06T22:01:09.035Z,132.30
2023-02-06T22:03:37.846Z,137.57
2023-02-06T22:06:08.747Z,151.20
2023-02-06T22:08:39.742Z,125.00
2023-02-06T22:11:19.832Z,122.10
2023-02-06T22:13:49.053Z,121.07
2023-02-06T22:16:19.600Z,106.67
2023-02-06T22:18:48.527Z,109.20
2023-02-06T22:21:19.029Z,125.93
2023-02-06T22:23:51.973Z,120.47
2023-02-06T22:26:21.920Z,122.57
2023-02-06T22:28:50.734Z,119.37
2023-02-06T22:31:21.742Z,115.87
2023-02-06T22:33:51.105Z,124.93
2023-02-06T22:36:21.077Z,129.13
2023-02-06T22:38:54.767Z,129.63
2023-02-06T22:41:23.245Z,122.83
2023-02-06T22:43:52.386Z,120.70
2023-02-06T22:46:22.922Z,114.87
2023-02-06T22:48:52.908Z,114.30
2023-02-06T22:51:21.620Z,99.33
2023-02-06T22:53:52.124Z,112.67
2023-02-06T22:56:29.625Z,94.13
2023-02-06T22:59:01.092Z,104.90
2023-02-06T23:01:33.172Z,105.80
2023-02-06T23:04:03.545Z,111.37
2023-02-06T23:06:32.976Z,105.33
2023-02-06T23:09:05.187Z,95.87
2023-02-06T23:11:33.682Z,96.43
2023-02-06T23:14:03.895Z,96.23
2023-02-06T23:16:33.855Z,91.70
2023-02-06T23:19:05.284Z,93.90
2023-02-06T23:21:35.827Z,104.93
2023-02-06T23:24:07.146Z,122.37
2023-02-06T23:26:36.675Z,129.07
2023-02-06T23:29:07.454Z,126.33
2023-02-06T23:31:36.289Z,125.50
2023-02-06T23:34:05.504Z,122.90
2023-02-06T23:36:34.461Z,121.87
2023-02-06T23:39:03.492Z,116.43
2023-02-06T23:41:34.553Z,124.47
2023-02-06T23:44:04.867Z,122.33
2023-02-06T23:46:35.564Z,122.17
2023-02-06T23:49:04.798Z,125.57
2023-02-06T23:51:33.411Z,124.13
2023-02-06T23:54:02.109Z,114.87
2023-02-06T23:56:33.588Z,110.07
2023-02-06T23:59:03.949Z,103.37
